sensor_id;sensor_type;location;lat;lon;timestamp;pressure;altitude;pressure_sealevel;temperature;humidity
38688;BME280;24444;53.216;-6.664;2022-08-06T00:01:30;101977.78;;;5.95;91.99
38688;BME280;24444;53.216;-6.664;2022-08-06T00:03:57;101975.20;;;6.39;90.60
38688;BME280;24444;53.216;-6.664;2022-08-06T00:06:25;101972.36;;;5.93;92.45
38688;BME280;24444;53.216;-6.664;2022-08-06T00:08:52;101967.98;;;5.89;91.56
38688;BME280;24444;53.216;-6.664;2022-08-06T00:11:20;101970.45;;;6.14;91.65
38688;BME280;24444;53.216;-6.664;2022-08-06T00:13:47;101970.22;;;5.81;91.83
38688;BME280;24444;53.216;-6.664;2022-08-06T00:16:15;101963.86;;;5.74;91.95
38688;BME280;24444;53.216;-6.664;2022-08-06T00:18:42;101963.56;;;5.79;91.97
38688;BME280;24444;53.216;-6.664;2022-08-06T00:21:10;101961.01;;;5.52;92.48
38688;BME280;24444;53.216;-6.664;2022-08-06T00:23:38;101959.92;;;5.63;92.27
38688;BME280;24444;53.216;-6.664;2022-08-06T00:26:06;101958.52;;;6.11;90.56
38688;BME280;24444;53.216;-6.664;2022-08-06T00:28:33;101955.59;;;6.26;90.08
38688;BME280;24444;53.216;-6.664;2022-08-06T00:31:02;101960.97;;;6.12;90.58
38688;BME280;24444;53.216;-6.664;2022-08-06T00:33:30;101956.44;;;5.83;90.98
38688;BME280;24444;53.216;-6.664;2022-08-06T00:35:57;101955.77;;;6.19;90.66
38688;BME280;24444;53.216;-6.664;2022-08-06T00:38:25;101957.05;;;5.74;90.41
38688;BME280;24444;53.216;-6.664;2022-08-06T00:40:52;101949.13;;;5.90;91.56
38688;BME280;24444;53.216;-6.664;2022-08-06T00:43:20;101953.46;;;5.65;92.16
38688;BME280;24444;53.216;-6.664;2022-08-06T00:45:58;101952.66;;;4.85;96.95
38688;BME280;24444;53.216;-6.664;2022-08-06T00:48:26;101954.28;;;5.35;94.06
38688;BME280;24444;53.216;-6.664;2022-08-06T00:50:53;101958.86;;;5.51;93.73
38688;BME280;24444;53.216;-6.664;2022-08-06T00:53:20;101959.27;;;5.04;95.23
38688;BME280;24444;53.216;-6.664;2022-08-06T00:55:47;101959.99;;;5.16;95.23
38688;BME280;24444;53.216;-6.664;2022-08-06T00:58:14;101960.51;;;4.91;96.35
38688;BME280;24444;53.216;-6.664;2022-08-06T01:00:42;101959.83;;;5.74;96.30
38688;BME280;24444;53.216;-6.664;2022-08-06T01:03:10;101956.22;;;4.95;95.65
38688;BME280;24444;53.216;-6.664;2022-08-06T01:05:38;101956.56;;;4.64;97.30
38688;BME280;24444;53.216;-6.664;2022-08-06T01:08:05;101955.17;;;4.75;96.38
38688;BME280;24444;53.216;-6.664;2022-08-06T01:10:32;101955.03;;;4.65;96.50
38688;BME280;24444;53.216;-6.664;2022-08-06T01:13:00;101960.87;;;5.19;97.14
38688;BME280;24444;53.216;-6.664;2022-08-06T01:15:27;101961.65;;;4.42;97.05
38688;BME280;24444;53.216;-6.664;2022-08-06T01:17:58;101961.46;;;3.98;98.21
38688;BME280;24444;53.216;-6.664;2022-08-06T01:20:50;101963.80;;;4.37;97.81
38688;BME280;24444;53.216;-6.664;2022-08-06T01:23:34;101965.11;;;4.56;97.54
38688;BME280;24444;53.216;-6.664;2022-08-06T01:26:38;101967.30;;;4.52;97.85
38688;BME280;24444;53.216;-6.664;2022-08-06T01:29:11;101960.41;;;5.73;97.56
38688;BME280;24444;53.216;-6.664;2022-08-06T01:31:45;101964.33;;;5.05;95.77
38688;BME280;24444;53.216;-6.664;2022-08-06T01:34:18;101960.84;;;5.10;95.55
38688;BME280;24444;53.216;-6.664;2022-08-06T01:36:50;101956.49;;;4.80;95.17
38688;BME280;24444;53.216;-6.664;2022-08-06T01:39:20;101955.12;;;4.47;94.93
38688;BME280;24444;53.216;-6.664;2022-08-06T01:41:51;101952.23;;;4.57;97.32
38688;BME280;24444;53.216;-6.664;2022-08-06T01:44:22;101950.37;;;4.26;96.37
38688;BME280;24444;53.216;-6.664;2022-08-06T01:46:52;101953.85;;;4.17;97.56
38688;BME280;24444;53.216;-6.664;2022-08-06T01:49:24;101950.84;;;3.89;98.60
38688;BME280;24444;53.216;-6.664;2022-08-06T01:51:55;101947.75;;;3.67;99.54
38688;BME280;24444;53.216;-6.664;2022-08-06T01:54:24;101947.68;;;3.81;99.51
38688;BME280;24444;53.216;-6.664;2022-08-06T01:56:54;101947.20;;;3.94;98.85
38688;BME280;24444;53.216;-6.664;2022-08-06T01:59:26;101943.44;;;4.36;99.96
38688;BME280;24444;53.216;-6.664;2022-08-06T02:01:55;101942.83;;;4.19;100.00
38688;BME280;24444;53.216;-6.664;2022-08-06T02:04:27;101942.55;;;4.98;96.74
38688;BME280;24444;53.216;-6.664;2022-08-06T02:06:58;101943.46;;;4.10;97.24
38688;BME280;24444;53.216;-6.664;2022-08-06T02:09:27;101944.69;;;3.66;99.09
38688;BME280;24444;53.216;-6.664;2022-08-06T02:12:02;101948.02;;;3.89;99.03
38688;BME280;24444;53.216;-6.664;2022-08-06T02:14:34;101948.63;;;4.09;99.48
38688;BME280;24444;53.216;-6.664;2022-08-06T02:17:02;101949.94;;;4.15;99.06
38688;BME280;24444;53.216;-6.664;2022-08-06T02:19:31;101950.50;;;3.84;98.98
38688;BME280;24444;53.216;-6.664;2022-08-06T02:22:01;101948.26;;;3.64;99.19
38688;BME280;24444;53.216;-6.664;2022-08-06T02:24:31;101950.48;;;4.40;99.35
38688;BME280;24444;53.216;-6.664;2022-08-06T02:27:01;101948.89;;;4.23;98.96
38688;BME280;24444;53.216;-6.664;2022-08-06T02:29:31;101948.23;;;4.34;98.89
38688;BME280;24444;53.216;-6.664;2022-08-06T02:31:58;101949.67;;;4.50;99.09
38688;BME280;24444;53.216;-6.664;2022-08-06T02:34:26;101948.77;;;4.61;97.91
38688;BME280;24444;53.216;-6.664;2022-08-06T02:36:58;101944.95;;;4.84;96.88
38688;BME280;24444;53.216;-6.664;2022-08-06T02:39:32;101944.31;;;4.19;96.68
38688;BME280;24444;53.216;-6.664;2022-08-06T02:42:08;101946.98;;;4.18;97.59
38688;BME280;24444;53.216;-6.664;2022-08-06T02:44:43;101945.62;;;4.23;97.91
38688;BME280;24444;53.216;-6.664;2022-08-06T02:47:13;101944.69;;;4.41;96.10
38688;BME280;24444;53.216;-6.664;2022-08-06T02:49:47;101940.88;;;4.46;96.93
38688;BME280;24444;53.216;-6.664;2022-08-06T02:52:30;101938.69;;;4.32;95.85
38688;BME280;24444;53.216;-6.664;2022-08-06T02:55:02;101941.13;;;4.23;96.49
38688;BME280;24444;53.216;-6.664;2022-08-06T02:57:37;101941.55;;;4.27;97.12
38688;BME280;24444;53.216;-6.664;2022-08-06T03:00:07;101942.78;;;4.21;96.60
38688;BME280;24444;53.216;-6.664;2022-08-06T03:02:38;101942.25;;;4.15;96.44
38688;BME280;24444;53.216;-6.664;2022-08-06T03:05:08;101940.58;;;3.73;97.52
38688;BME280;24444;53.216;-6.664;2022-08-06T03:07:39;101933.80;;;4.18;97.90
38688;BME280;24444;53.216;-6.664;2022-08-06T03:10:08;101933.47;;;4.74;96.42
38688;BME280;24444;53.216;-6.664;2022-08-06T03:12:37;101934.27;;;4.70;95.08
38688;BME280;24444;53.216;-6.664;2022-08-06T03:15:07;101938.93;;;4.34;94.71
38688;BME280;24444;53.216;-6.664;2022-08-06T03:17:36;101944.21;;;3.79;96.18
38688;BME280;24444;53.216;-6.664;2022-08-06T03:20:06;101944.48;;;3.15;99.18
38688;BME280;24444;53.216;-6.664;2022-08-06T03:22:35;101947.09;;;3.67;100.00
38688;BME280;24444;53.216;-6.664;2022-08-06T03:25:04;101946.01;;;2.91;100.00
38688;BME280;24444;53.216;-6.664;2022-08-06T03:27:34;101943.82;;;3.49;100.00
38688;BME280;24444;53.216;-6.664;2022-08-06T03:30:03;101949.09;;;3.40;100.00
38688;BME280;24444;53.216;-6.664;2022-08-06T03:32:30;101954.64;;;3.27;100.00
38688;BME280;24444;53.216;-6.664;2022-08-06T03:34:58;101958.22;;;3.42;100.00
38688;BME280;24444;53.216;-6.664;2022-08-06T03:37:26;101955.25;;;3.73;100.00
38688;BME280;24444;53.216;-6.664;2022-08-06T03:39:53;101957.94;;;3.09;100.00
38688;BME280;24444;53.216;-6.664;2022-08-06T03:42:23;101960.21;;;3.62;100.00
38688;BME280;24444;53.216;-6.664;2022-08-06T03:44:51;101965.26;;;3.78;100.00
38688;BME280;24444;53.216;-6.664;2022-08-06T03:47:21;101962.64;;;2.97;100.00
38688;BME280;24444;53.216;-6.664;2022-08-06T03:49:55;101965.38;;;3.63;100.00
38688;BME280;24444;53.216;-6.664;2022-08-06T03:52:27;101963.28;;;3.30;100.00
38688;BME280;24444;53.216;-6.664;2022-08-06T03:54:57;101962.78;;;3.18;100.00
38688;BME280;24444;53.216;-6.664;2022-08-06T03:57:31;101962.04;;;3.25;100.00
38688;BME280;24444;53.216;-6.664;2022-08-06T03:59:59;101959.71;;;3.29;100.00
38688;BME280;24444;53.216;-6.664;2022-08-06T04:02:30;101958.08;;;3.13;100.00
38688;BME280;24444;53.216;-6.664;2022-08-06T04:04:58;101957.43;;;3.37;100.00
38688;BME280;24444;53.216;-6.664;2022-08-06T04:07:26;101956.41;;;2.96;100.00
38688;BME280;24444;53.216;-6.664;2022-08-06T04:09:55;101958.97;;;3.18;100.00
38688;BME280;24444;53.216;-6.664;2022-08-06T04:12:24;101958.67;;;2.95;100.00
38688;BME280;24444;53.216;-6.664;2022-08-06T04:14:52;101956.82;;;2.78;100.00
38688;BME280;24444;53.216;-6.664;2022-08-06T04:17:20;101956.44;;;3.15;100.00
38688;BME280;24444;53.216;-6.664;2022-08-06T04:19:48;101959.38;;;3.02;100.00
38688;BME280;24444;53.216;-6.664;2022-08-06T04:22:16;101963.39;;;3.06;100.00
38688;BME280;24444;53.216;-6.664;2022-08-06T04:24:43;101962.61;;;3.64;100.00
38688;BME280;24444;53.216;-6.664;2022-08-06T04:27:10;101958.81;;;3.43;100.00
38688;BME280;24444;53.216;-6.664;2022-08-06T04:29:40;101957.36;;;3.46;100.00
38688;BME280;24444;53.216;-6.664;2022-08-06T04:32:10;101961.88;;;3.00;100.00
38688;BME280;24444;53.216;-6.664;2022-08-06T04:34:41;101962.99;;;3.03;100.00
38688;BME280;24444;53.216;-6.664;2022-08-06T04:37:11;101961.72;;;3.37;100.00
38688;BME280;24444;53.216;-6.664;2022-08-06T04:39:39;101963.34;;;3.21;100.00
38688;BME280;24444;53.216;-6.664;2022-08-06T04:42:07;101966.24;;;3.69;100.00
38688;BME280;24444;53.216;-6.664;2022-08-06T04:44:35;101964.96;;;3.42;100.00
38688;BME280;24444;53.216;-6.664;2022-08-06T04:47:03;101964.85;;;3.73;100.00
38688;BME280;24444;53.216;-6.664;2022-08-06T04:49:31;101964.68;;;4.27;100.00
38688;BME280;24444;53.216;-6.664;2022-08-06T04:51:59;101969.12;;;3.91;100.00
38688;BME280;24444;53.216;-6.664;2022-08-06T04:54:26;101968.77;;;4.38;100.00
38688;BME280;24444;53.216;-6.664;2022-08-06T04:56:54;101968.44;;;4.03;100.00
38688;BME280;24444;53.216;-6.664;2022-08-06T04:59:21;101967.26;;;4.12;98.59
38688;BME280;24444;53.216;-6.664;2022-08-06T05:01:48;101967.51;;;4.45;98.36
38688;BME280;24444;53.216;-6.664;2022-08-06T05:04:14;101964.81;;;4.42;97.29
38688;BME280;24444;53.216;-6.664;2022-08-06T05:06:46;101968.22;;;3.87;99.23
38688;BME280;24444;53.216;-6.664;2022-08-06T05:09:20;101968.43;;;4.00;98.59
38688;BME280;24444;53.216;-6.664;2022-08-06T05:11:56;101968.84;;;4.10;98.86
38688;BME280;24444;53.216;-6.664;2022-08-06T05:14:28;101967.02;;;4.96;95.43
38688;BME280;24444;53.216;-6.664;2022-08-06T05:16:56;101969.31;;;4.85;95.54
38688;BME280;24444;53.216;-6.664;2022-08-06T05:19:33;101970.97;;;5.51;93.58
38688;BME280;24444;53.216;-6.664;2022-08-06T05:22:02;101969.73;;;4.80;94.73
38688;BME280;24444;53.216;-6.664;2022-08-06T05:24:33;101969.51;;;4.10;97.25
38688;BME280;24444;53.216;-6.664;2022-08-06T05:27:01;101968.30;;;4.15;98.70
38688;BME280;24444;53.216;-6.664;2022-08-06T05:29:28;101969.77;;;5.19;96.17
38688;BME280;24444;53.216;-6.664;2022-08-06T05:31:58;101971.88;;;4.65;96.63
38688;BME280;24444;53.216;-6.664;2022-08-06T05:34:26;101974.37;;;4.85;97.06
38688;BME280;24444;53.216;-6.664;2022-08-06T05:36:53;101976.94;;;4.92;96.69
38688;BME280;24444;53.216;-6.664;2022-08-06T05:39:20;101977.24;;;3.86;97.50
38688;BME280;24444;53.216;-6.664;2022-08-06T05:41:48;101978.52;;;4.36;98.65
38688;BME280;24444;53.216;-6.664;2022-08-06T05:44:14;101976.19;;;4.34;99.05
38688;BME280;24444;53.216;-6.664;2022-08-06T05:46:49;101973.33;;;4.33;97.71
38688;BME280;24444;53.216;-6.664;2022-08-06T05:49:21;101979.01;;;4.43;97.91
38688;BME280;24444;53.216;-6.664;2022-08-06T05:51:55;101982.33;;;5.30;95.54
38688;BME280;24444;53.216;-6.664;2022-08-06T05:54:30;101982.69;;;4.59;96.07
38688;BME280;24444;53.216;-6.664;2022-08-06T05:57:03;101979.08;;;5.25;96.05
38688;BME280;24444;53.216;-6.664;2022-08-06T05:59:35;101977.85;;;4.78;95.50
38688;BME280;24444;53.216;-6.664;2022-08-06T06:02:05;101979.77;;;4.58;97.33
38688;BME280;24444;53.216;-6.664;2022-08-06T06:04:33;101978.10;;;4.45;97.75
38688;BME280;24444;53.216;-6.664;2022-08-06T06:07:01;101983.84;;;4.45;98.47
38688;BME280;24444;53.216;-6.664;2022-08-06T06:09:29;101985.37;;;4.44;98.07
38688;BME280;24444;53.216;-6.664;2022-08-06T06:11:58;101991.37;;;4.63;98.14
38688;BME280;24444;53.216;-6.664;2022-08-06T06:14:35;101993.56;;;4.18;98.54
38688;BME280;24444;53.216;-6.664;2022-08-06T06:17:15;101993.56;;;4.84;99.12
38688;BME280;24444;53.216;-6.664;2022-08-06T06:19:49;101991.13;;;5.07;97.89
38688;BME280;24444;53.216;-6.664;2022-08-06T06:22:24;101992.02;;;5.52;96.84
38688;BME280;24444;53.216;-6.664;2022-08-06T06:24:59;101993.86;;;5.31;96.28
38688;BME280;24444;53.216;-6.664;2022-08-06T06:27:38;101995.33;;;5.12;97.80
38688;BME280;24444;53.216;-6.664;2022-08-06T06:30:15;101994.86;;;4.78;99.36
38688;BME280;24444;53.216;-6.664;2022-08-06T06:32:49;101999.07;;;4.90;99.32
38688;BME280;24444;53.216;-6.664;2022-08-06T06:35:26;101999.78;;;4.95;100.00
38688;BME280;24444;53.216;-6.664;2022-08-06T06:38:07;102000.58;;;5.32;100.00
38688;BME280;24444;53.216;-6.664;2022-08-06T06:40:47;102006.36;;;6.11;98.60
38688;BME280;24444;53.216;-6.664;2022-08-06T06:43:20;102016.57;;;5.95;98.22
38688;BME280;24444;53.216;-6.664;2022-08-06T06:46:00;102016.36;;;5.58;98.31
38688;BME280;24444;53.216;-6.664;2022-08-06T06:48:33;102015.19;;;6.08;97.38
38688;BME280;24444;53.216;-6.664;2022-08-06T06:51:07;102009.79;;;6.86;95.37
38688;BME280;24444;53.216;-6.664;2022-08-06T06:53:39;102009.80;;;7.09;92.54
38688;BME280;24444;53.216;-6.664;2022-08-06T06:56:11;102013.60;;;6.28;92.73
38688;BME280;24444;53.216;-6.664;2022-08-06T06:58:45;102016.00;;;7.10;92.88
38688;BME280;24444;53.216;-6.664;2022-08-06T07:01:14;102017.72;;;7.38;90.33
38688;BME280;24444;53.216;-6.664;2022-08-06T07:03:44;102015.86;;;7.23;91.12
38688;BME280;24444;53.216;-6.664;2022-08-06T07:06:12;102016.47;;;8.24;88.69
38688;BME280;24444;53.216;-6.664;2022-08-06T07:08:43;102020.61;;;7.82;89.82
38688;BME280;24444;53.216;-6.664;2022-08-06T07:11:16;102019.28;;;7.84;89.23
38688;BME280;24444;53.216;-6.664;2022-08-06T07:13:46;102017.41;;;8.44;88.58
38688;BME280;24444;53.216;-6.664;2022-08-06T07:16:16;102017.19;;;8.52;84.87
38688;BME280;24444;53.216;-6.664;2022-08-06T07:18:44;102021.84;;;8.36;87.31
38688;BME280;24444;53.216;-6.664;2022-08-06T07:21:15;102027.21;;;9.14;86.16
38688;BME280;24444;53.216;-6.664;2022-08-06T07:23:46;102026.58;;;8.62;83.06
38688;BME280;24444;53.216;-6.664;2022-08-06T07:26:17;102027.19;;;8.98;82.51
38688;BME280;24444;53.216;-6.664;2022-08-06T07:28:46;102029.08;;;8.13;82.82
38688;BME280;24444;53.216;-6.664;2022-08-06T07:31:15;102027.91;;;8.83;83.53
38688;BME280;24444;53.216;-6.664;2022-08-06T07:33:44;102027.30;;;9.11;83.10
38688;BME280;24444;53.216;-6.664;2022-08-06T07:36:16;102025.52;;;8.75;82.45
38688;BME280;24444;53.216;-6.664;2022-08-06T07:38:44;102024.14;;;9.57;81.36
38688;BME280;24444;53.216;-6.664;2022-08-06T07:41:13;102024.17;;;9.45;79.20
38688;BME280;24444;53.216;-6.664;2022-08-06T07:43:46;102029.03;;;9.62;79.35
38688;BME280;24444;53.216;-6.664;2022-08-06T07:46:19;102026.22;;;10.33;76.23
38688;BME280;24444;53.216;-6.664;2022-08-06T07:48:52;102029.65;;;10.03;76.20
38688;BME280;24444;53.216;-6.664;2022-08-06T07:51:22;102028.87;;;9.52;79.01
38688;BME280;24444;53.216;-6.664;2022-08-06T07:53:50;102027.03;;;10.17;75.69
38688;BME280;24444;53.216;-6.664;2022-08-06T07:56:19;102029.94;;;10.97;74.83
38688;BME280;24444;53.216;-6.664;2022-08-06T07:58:48;102030.32;;;10.49;73.84
38688;BME280;24444;53.216;-6.664;2022-08-06T08:01:16;102027.20;;;11.23;73.18
38688;BME280;24444;53.216;-6.664;2022-08-06T08:03:44;102029.52;;;11.20;68.36
38688;BME280;24444;53.216;-6.664;2022-08-06T08:06:14;102025.17;;;10.86;68.00
38688;BME280;24444;53.216;-6.664;2022-08-06T08:08:42;102025.96;;;10.64;69.52
38688;BME280;24444;53.216;-6.664;2022-08-06T08:11:11;102024.60;;;11.61;69.05
38688;BME280;24444;53.216;-6.664;2022-08-06T08:13:39;102026.65;;;11.90;65.03
38688;BME280;24444;53.216;-6.664;2022-08-06T08:16:08;102025.57;;;12.90;65.22
38688;BME280;24444;53.216;-6.664;2022-08-06T08:18:36;102025.21;;;12.60;63.03
38688;BME280;24444;53.216;-6.664;2022-08-06T08:21:06;102022.23;;;11.95;61.48
38688;BME280;24444;53.216;-6.664;2022-08-06T08:23:36;102022.45;;;12.22;64.03
38688;BME280;24444;53.216;-6.664;2022-08-06T08:26:04;102023.11;;;12.09;62.12
38688;BME280;24444;53.216;-6.664;2022-08-06T08:28:32;102024.17;;;12.93;59.57
38688;BME280;24444;53.216;-6.664;2022-08-06T08:31:00;102019.83;;;12.50;59.93
38688;BME280;24444;53.216;-6.664;2022-08-06T08:33:28;102020.67;;;12.83;61.06
38688;BME280;24444;53.216;-6.664;2022-08-06T08:35:55;102023.45;;;13.37;59.46
38688;BME280;24444;53.216;-6.664;2022-08-06T08:38:23;102022.99;;;13.18;60.07
38688;BME280;24444;53.216;-6.664;2022-08-06T08:40:51;102022.66;;;13.56;60.25
38688;BME280;24444;53.216;-6.664;2022-08-06T08:43:22;102020.76;;;13.73;56.80
38688;BME280;24444;53.216;-6.664;2022-08-06T08:45:51;102019.60;;;14.97;53.90
38688;BME280;24444;53.216;-6.664;2022-08-06T08:48:23;102019.05;;;15.24;51.55
38688;BME280;24444;53.216;-6.664;2022-08-06T08:50:51;102014.65;;;14.64;52.54
38688;BME280;24444;53.216;-6.664;2022-08-06T08:53:28;102016.14;;;14.64;51.76
38688;BME280;24444;53.216;-6.664;2022-08-06T08:55:56;102013.96;;;15.63;52.62
38688;BME280;24444;53.216;-6.664;2022-08-06T08:58:24;102016.84;;;15.82;50.74
38688;BME280;24444;53.216;-6.664;2022-08-06T09:00:51;102017.33;;;14.94;47.93
38688;BME280;24444;53.216;-6.664;2022-08-06T09:03:19;102018.83;;;15.18;50.46
38688;BME280;24444;53.216;-6.664;2022-08-06T09:05:46;102018.37;;;16.24;49.89
38688;BME280;24444;53.216;-6.664;2022-08-06T09:08:14;102019.74;;;17.11;47.29
38688;BME280;24444;53.216;-6.664;2022-08-06T09:10:43;102024.03;;;16.67;49.77
38688;BME280;24444;53.216;-6.664;2022-08-06T09:13:11;102025.88;;;18.25;47.86
38688;BME280;24444;53.216;-6.664;2022-08-06T09:15:38;102029.44;;;16.80;44.57
38688;BME280;24444;53.216;-6.664;2022-08-06T09:18:07;102029.16;;;17.01;45.71
38688;BME280;24444;53.216;-6.664;2022-08-06T09:20:36;102028.17;;;17.27;46.32
38688;BME280;24444;53.216;-6.664;2022-08-06T09:23:04;102021.39;;;16.51;48.17
38688;BME280;24444;53.216;-6.664;2022-08-06T09:25:41;102022.73;;;17.38;47.47
38688;BME280;24444;53.216;-6.664;2022-08-06T09:28:09;102022.35;;;16.97;47.43
38688;BME280;24444;53.216;-6.664;2022-08-06T09:30:38;102019.79;;;16.00;46.48
38688;BME280;24444;53.216;-6.664;2022-08-06T09:33:11;102016.86;;;16.59;47.54
38688;BME280;24444;53.216;-6.664;2022-08-06T09:35:38;102020.65;;;17.18;47.91
38688;BME280;24444;53.216;-6.664;2022-08-06T09:38:07;102025.82;;;18.23;46.29
38688;BME280;24444;53.216;-6.664;2022-08-06T09:40:35;102029.04;;;18.63;44.35
38688;BME280;24444;53.216;-6.664;2022-08-06T09:43:02;102028.20;;;19.02;43.17
38688;BME280;24444;53.216;-6.664;2022-08-06T09:45:29;102024.17;;;20.33;41.32
38688;BME280;24444;53.216;-6.664;2022-08-06T09:48:02;102030.91;;;21.93;40.07
38688;BME280;24444;53.216;-6.664;2022-08-06T09:50:39;102028.72;;;20.28;38.56
38688;BME280;24444;53.216;-6.664;2022-08-06T09:53:07;102031.20;;;20.68;40.28
38688;BME280;24444;53.216;-6.664;2022-08-06T09:55:34;102032.10;;;19.89;40.20
38688;BME280;24444;53.216;-6.664;2022-08-06T09:58:02;102031.57;;;17.87;42.20
38688;BME280;24444;53.216;-6.664;2022-08-06T10:00:31;102031.52;;;17.57;43.90
38688;BME280;24444;53.216;-6.664;2022-08-06T10:03:01;102032.45;;;16.83;45.29
38688;BME280;24444;53.216;-6.664;2022-08-06T10:05:30;102027.87;;;15.54;49.24
38688;BME280;24444;53.216;-6.664;2022-08-06T10:08:04;102029.16;;;16.87;51.06
38688;BME280;24444;53.216;-6.664;2022-08-06T10:10:42;102037.57;;;17.17;51.44
38688;BME280;24444;53.216;-6.664;2022-08-06T10:13:12;102031.86;;;15.84;51.81
38688;BME280;24444;53.216;-6.664;2022-08-06T10:15:41;102022.31;;;15.28;55.34
38688;BME280;24444;53.216;-6.664;2022-08-06T10:18:08;102029.70;;;16.47;54.57
38688;BME280;24444;53.216;-6.664;2022-08-06T10:20:35;102028.92;;;15.66;53.21
38688;BME280;24444;53.216;-6.664;2022-08-06T10:23:03;102032.45;;;15.51;56.01
38688;BME280;24444;53.216;-6.664;2022-08-06T10:25:36;102029.55;;;15.00;55.65
38688;BME280;24444;53.216;-6.664;2022-08-06T10:28:04;102029.95;;;13.79;60.37
38688;BME280;24444;53.216;-6.664;2022-08-06T10:30:31;102026.53;;;15.23;59.63
38688;BME280;24444;53.216;-6.664;2022-08-06T10:33:01;102025.04;;;15.64;57.70
38688;BME280;24444;53.216;-6.664;2022-08-06T10:35:30;102024.05;;;15.22;58.85
38688;BME280;24444;53.216;-6.664;2022-08-06T10:38:00;102022.01;;;15.57;59.73
38688;BME280;24444;53.216;-6.664;2022-08-06T10:40:28;102018.96;;;15.22;60.12
38688;BME280;24444;53.216;-6.664;2022-08-06T10:42:55;102014.49;;;15.51;56.25
38688;BME280;24444;53.216;-6.664;2022-08-06T10:45:23;102017.26;;;14.90;58.32
38688;BME280;24444;53.216;-6.664;2022-08-06T10:47:51;102021.69;;;15.21;58.93
38688;BME280;24444;53.216;-6.664;2022-08-06T10:50:18;102019.38;;;15.39;57.58
38688;BME280;24444;53.216;-6.664;2022-08-06T10:52:45;102016.16;;;15.24;57.98
38688;BME280;24444;53.216;-6.664;2022-08-06T10:55:14;102014.81;;;15.04;57.25
38688;BME280;24444;53.216;-6.664;2022-08-06T10:57:42;102012.73;;;15.74;60.17
38688;BME280;24444;53.216;-6.664;2022-08-06T11:00:11;102008.84;;;14.67;60.52
38688;BME280;24444;53.216;-6.664;2022-08-06T11:02:45;102007.03;;;15.88;62.07
38688;BME280;24444;53.216;-6.664;2022-08-06T11:05:20;102011.81;;;18.01;58.31
38688;BME280;24444;53.216;-6.664;2022-08-06T11:08:07;102010.29;;;18.66;50.20
38688;BME280;24444;53.216;-6.664;2022-08-06T11:10:50;102009.75;;;17.91;54.88
38688;BME280;24444;53.216;-6.664;2022-08-06T11:13:27;102003.51;;;16.47;52.29
38688;BME280;24444;53.216;-6.664;2022-08-06T11:15:56;102003.82;;;15.71;56.29
38688;BME280;24444;53.216;-6.664;2022-08-06T11:18:23;102002.84;;;16.39;59.81
38688;BME280;24444;53.216;-6.664;2022-08-06T11:20:51;102002.96;;;15.56;55.23
38688;BME280;24444;53.216;-6.664;2022-08-06T11:23:24;102003.66;;;15.30;56.58
38688;BME280;24444;53.216;-6.664;2022-08-06T11:25:54;102003.59;;;14.58;59.56
38688;BME280;24444;53.216;-6.664;2022-08-06T11:28:58;102005.90;;;15.11;61.71
38688;BME280;24444;53.216;-6.664;2022-08-06T11:31:36;101999.31;;;15.12;62.86
38688;BME280;24444;53.216;-6.664;2022-08-06T11:34:06;101999.33;;;15.00;63.35
38688;BME280;24444;53.216;-6.664;2022-08-06T11:36:51;101997.81;;;14.66;62.57
38688;BME280;24444;53.216;-6.664;2022-08-06T11:39:20;101993.57;;;15.24;63.87
38688;BME280;24444;53.216;-6.664;2022-08-06T11:41:51;101990.97;;;15.70;60.41
38688;BME280;24444;53.216;-6.664;2022-08-06T11:44:20;101986.78;;;15.24;64.05
38688;BME280;24444;53.216;-6.664;2022-08-06T11:46:48;101984.10;;;15.36;65.08
38688;BME280;24444;53.216;-6.664;2022-08-06T11:49:21;101984.13;;;15.45;60.38
38688;BME280;24444;53.216;-6.664;2022-08-06T11:51:52;101985.15;;;15.02;60.53
38688;BME280;24444;53.216;-6.664;2022-08-06T11:54:21;101983.86;;;14.81;64.00
38688;BME280;24444;53.216;-6.664;2022-08-06T11:57:23;101980.91;;;15.04;64.94
38688;BME280;24444;53.216;-6.664;2022-08-06T12:00:09;101982.03;;;14.05;67.49
38688;BME280;24444;53.216;-6.664;2022-08-06T12:02:55;101976.56;;;14.79;67.17
38688;BME280;24444;53.216;-6.664;2022-08-06T12:05:40;101974.14;;;14.83;67.96
38688;BME280;24444;53.216;-6.664;2022-08-06T12:08:20;101970.76;;;14.65;68.78
38688;BME280;24444;53.216;-6.664;2022-08-06T12:11:52;101973.59;;;15.27;65.71
38688;BME280;24444;53.216;-6.664;2022-08-06T12:14:53;101977.93;;;14.79;67.99
38688;BME280;24444;53.216;-6.664;2022-08-06T12:17:22;101975.92;;;14.51;68.57
38688;BME280;24444;53.216;-6.664;2022-08-06T12:19:51;101976.92;;;13.39;68.26
38688;BME280;24444;53.216;-6.664;2022-08-06T12:22:20;101973.18;;;13.97;69.06
38688;BME280;24444;53.216;-6.664;2022-08-06T12:24:52;101971.70;;;14.65;67.40
38688;BME280;24444;53.216;-6.664;2022-08-06T12:27:20;101972.92;;;15.38;63.90
38688;BME280;24444;53.216;-6.664;2022-08-06T12:29:54;101970.83;;;14.91;65.13
38688;BME280;24444;53.216;-6.664;2022-08-06T12:32:23;101970.03;;;14.79;65.43
38688;BME280;24444;53.216;-6.664;2022-08-06T12:34:51;101972.30;;;14.55;63.44
38688;BME280;24444;53.216;-6.664;2022-08-06T12:37:19;101971.49;;;14.85;66.26
38688;BME280;24444;53.216;-6.664;2022-08-06T12:39:47;101973.48;;;15.16;64.62
38688;BME280;24444;53.216;-6.664;2022-08-06T12:42:22;101974.87;;;15.17;60.69
38688;BME280;24444;53.216;-6.664;2022-08-06T12:44:49;101975.72;;;15.33;61.37
38688;BME280;24444;53.216;-6.664;2022-08-06T12:47:17;101976.69;;;15.70;61.39
38688;BME280;24444;53.216;-6.664;2022-08-06T12:49:45;101977.26;;;15.99;62.44
38688;BME280;24444;53.216;-6.664;2022-08-06T12:52:19;101975.95;;;15.88;62.20
38688;BME280;24444;53.216;-6.664;2022-08-06T12:54:47;101975.01;;;15.24;67.39
38688;BME280;24444;53.216;-6.664;2022-08-06T12:57:22;101971.60;;;14.33;65.33
38688;BME280;24444;53.216;-6.664;2022-08-06T12:59:50;101967.22;;;15.69;62.59
38688;BME280;24444;53.216;-6.664;2022-08-06T13:02:19;101966.43;;;15.44;61.94
38688;BME280;24444;53.216;-6.664;2022-08-06T13:04:50;101963.21;;;14.71;61.40